createdAt,value
2019-03-12T00:01:56.468Z,6.83
2019-03-12T00:04:27.696Z,6.15
2019-03-12T00:06:59.109Z,5.10
2019-03-12T00:09:30.257Z,7.05
2019-03-12T00:12:01.622Z,4.37
2019-03-12T00:14:32.792Z,3.75
2019-03-12T00:17:03.840Z,4.85
2019-03-12T00:19:36.002Z,3.25
2019-03-12T00:22:07.253Z,3.02
2019-03-12T00:24:38.600Z,7.87
2019-03-12T00:27:09.789Z,3.90
2019-03-12T00:29:40.941Z,3.52
2019-03-12T00:32:12.160Z,3.60
2019-03-12T00:34:43.193Z,5.00
2019-03-12T00:37:14.566Z,5.05
2019-03-12T00:39:45.640Z,9.73
2019-03-12T00:42:16.752Z,10.95
2019-03-12T00:44:48.046Z,9.13
2019-03-12T00:47:19.111Z,9.38
2019-03-12T00:49:50.137Z,10.85
2019-03-12T00:52:21.349Z,11.10
2019-03-12T00:54:52.638Z,13.10
2019-03-12T00:57:23.910Z,14.50
2019-03-12T00:59:56.512Z,11.95
2019-03-12T01:02:29.229Z,14.25
2019-03-12T01:05:00.504Z,10.32
2019-03-12T01:07:31.837Z,11.28
2019-03-12T01:10:02.981Z,11.03
2019-03-12T01:12:34.334Z,12.18
2019-03-12T01:15:07.367Z,7.05
2019-03-12T01:17:38.400Z,8.75
2019-03-12T01:20:12.199Z,8.73
2019-03-12T01:22:43.259Z,13.13
2019-03-12T01:25:14.576Z,8.38
2019-03-12T01:27:45.683Z,10.13
2019-03-12T01:30:17.758Z,12.28
2019-03-12T01:32:49.278Z,9.68
2019-03-12T01:35:20.342Z,10.18
2019-03-12T01:37:51.768Z,9.38
2019-03-12T01:40:22.948Z,9.13
2019-03-12T01:42:54.113Z,6.83
2019-03-12T01:45:25.177Z,9.95
2019-03-12T01:47:56.481Z,7.78
2019-03-12T01:50:28.656Z,6.97
2019-03-12T01:52:59.761Z,7.03
2019-03-12T01:55:30.648Z,10.25
2019-03-12T01:58:01.958Z,10.80
2019-03-12T02:00:33.143Z,6.87
2019-03-12T02:03:05.597Z,13.15
2019-03-12T02:05:38.361Z,7.62
2019-03-12T02:08:09.548Z,12.20
2019-03-12T02:10:40.826Z,21.62
2019-03-12T02:13:12.049Z,23.67
2019-03-12T02:15:43.236Z,21.90
2019-03-12T02:18:14.428Z,16.50
2019-03-12T02:20:45.625Z,11.97
2019-03-12T02:23:17.023Z,9.08
2019-03-12T02:25:48.206Z,11.25
2019-03-12T02:28:20.727Z,9.05
2019-03-12T02:30:52.184Z,9.68
2019-03-12T02:33:23.575Z,9.48
2019-03-12T02:35:54.939Z,6.20
2019-03-12T02:38:26.084Z,8.75
2019-03-12T02:40:57.268Z,5.85
2019-03-12T02:43:28.397Z,6.53
2019-03-12T02:45:59.537Z,5.53
2019-03-12T02:48:30.646Z,4.47
2019-03-12T02:51:02.038Z,4.53
2019-03-12T02:53:33.254Z,4.83
2019-03-12T02:56:04.368Z,6.22
2019-03-12T02:58:35.485Z,5.37
2019-03-12T03:01:08.059Z,7.40
2019-03-12T03:03:39.212Z,6.17
2019-03-12T03:06:11.838Z,6.70
2019-03-12T03:08:43.288Z,5.75
2019-03-12T03:11:14.443Z,4.67
2019-03-12T03:13:45.544Z,5.53
2019-03-12T03:16:16.815Z,4.78
2019-03-12T03:18:48.199Z,5.33
2019-03-12T03:21:19.182Z,6.20
2019-03-12T03:23:50.532Z,2.85
2019-03-12T03:26:21.643Z,4.67
2019-03-12T03:28:52.835Z,3.25
2019-03-12T03:31:24.021Z,3.25
2019-03-12T03:33:55.245Z,4.55
2019-03-12T03:36:26.370Z,4.20
2019-03-12T03:38:57.436Z,4.22
2019-03-12T03:41:28.558Z,5.97
2019-03-12T03:43:59.800Z,6.03
2019-03-12T03:46:30.858Z,5.10
2019-03-12T03:49:02.065Z,7.08
2019-03-12T03:51:33.119Z,7.92
2019-03-12T03:54:05.080Z,6.62
2019-03-12T03:56:36.155Z,9.13
2019-03-12T03:59:07.363Z,8.95
2019-03-12T04:01:38.430Z,9.23
2019-03-12T04:04:09.706Z,9.73
2019-03-12T04:06:40.717Z,8.93
2019-03-12T04:09:12.086Z,11.25
2019-03-12T04:11:43.350Z,8.03
2019-03-12T04:14:14.574Z,8.45
2019-03-12T04:16:45.726Z,6.20
2019-03-12T04:19:16.765Z,8.30
2019-03-12T04:21:47.881Z,12.98
2019-03-12T04:24:19.127Z,7.75
2019-03-12T04:26:51.792Z,9.28
2019-03-12T04:29:22.967Z,7.00
2019-03-12T04:31:54.127Z,6.28
2019-03-12T04:34:25.068Z,5.70
2019-03-12T04:36:56.226Z,4.92
2019-03-12T04:39:27.325Z,6.75
2019-03-12T04:41:58.518Z,7.05
2019-03-12T04:44:29.689Z,7.58
2019-03-12T04:47:00.787Z,10.55
2019-03-12T04:49:32.181Z,11.45
2019-03-12T04:52:03.558Z,15.78
2019-03-12T04:54:34.805Z,11.50
2019-03-12T04:57:06.033Z,13.53
2019-03-12T04:59:37.295Z,11.33
2019-03-12T05:02:08.667Z,29.72
2019-03-12T05:04:39.846Z,11.65
2019-03-12T05:07:12.470Z,12.70
2019-03-12T05:09:44.359Z,22.48
2019-03-12T05:12:15.553Z,21.50
2019-03-12T05:14:46.912Z,17.00
2019-03-12T05:17:18.122Z,17.48
2019-03-12T05:19:49.428Z,18.82
2019-03-12T05:22:20.654Z,19.62
2019-03-12T05:24:52.048Z,20.15
2019-03-12T05:27:24.969Z,19.82
2019-03-12T05:29:59.146Z,17.75
2019-03-12T05:32:30.323Z,17.23
2019-03-12T05:35:01.561Z,19.02
2019-03-12T05:37:32.834Z,15.65
2019-03-12T05:40:07.007Z,14.43
2019-03-12T05:42:38.196Z,18.52
2019-03-12T05:45:17.539Z,18.35
2019-03-12T05:47:48.839Z,12.93
2019-03-12T05:50:21.787Z,16.77
2019-03-12T05:53:05.199Z,14.00
2019-03-12T05:55:36.604Z,19.10
2019-03-12T05:58:08.477Z,17.23
2019-03-12T06:00:39.814Z,18.00
2019-03-12T06:03:11.484Z,14.05
2019-03-12T06:05:43.845Z,16.93
2019-03-12T06:08:15.240Z,15.25
2019-03-12T06:10:46.688Z,16.85
2019-03-12T06:13:17.916Z,18.40
2019-03-12T06:15:49.238Z,18.07
2019-03-12T06:18:20.407Z,14.13
2019-03-12T06:20:51.549Z,16.05
2019-03-12T06:23:22.878Z,16.57
2019-03-12T06:25:54.788Z,17.37
2019-03-12T06:28:25.918Z,17.23
2019-03-12T06:31:11.074Z,23.83
2019-03-12T06:33:49.788Z,21.82
2019-03-12T06:36:37.803Z,27.70
2019-03-12T06:39:29.996Z,22.90
2019-03-12T06:42:18.941Z,22.50
2019-03-12T06:44:51.857Z,28.52
2019-03-12T06:47:24.733Z,27.52
2019-03-12T06:50:00.463Z,30.82
2019-03-12T06:52:33.353Z,27.67
2019-03-12T06:55:19.607Z,27.02
2019-03-12T06:57:58.623Z,32.42
2019-03-12T07:00:32.610Z,28.05
2019-03-12T07:03:08.467Z,33.18
2019-03-12T07:05:50.302Z,24.82
2019-03-12T07:08:35.047Z,30.82
2019-03-12T07:11:13.697Z,32.60
2019-03-12T07:13:49.688Z,37.35
2019-03-12T07:16:22.647Z,41.98
2019-03-12T07:18:58.372Z,29.75
2019-03-12T07:21:34.306Z,29.42
2019-03-12T07:24:13.481Z,34.95
2019-03-12T07:26:58.579Z,34.50
2019-03-12T07:29:46.872Z,32.28
2019-03-12T07:32:19.698Z,31.48
2019-03-12T07:34:53.013Z,33.75
2019-03-12T07:37:28.994Z,31.10
2019-03-12T07:40:08.092Z,14.70
2019-03-12T07:42:41.504Z,12.00
2019-03-12T07:45:17.249Z,10.43
2019-03-12T07:47:53.297Z,13.65
2019-03-12T07:50:26.401Z,16.55
2019-03-12T07:53:02.202Z,14.35
2019-03-12T07:55:47.179Z,9.53
2019-03-12T07:58:19.948Z,30.12
2019-03-12T08:01:04.937Z,9.05
2019-03-12T08:03:59.087Z,13.90
2019-03-12T08:06:46.328Z,14.95
2019-03-12T08:09:35.408Z,15.13
2019-03-12T08:12:08.322Z,15.28
2019-03-12T08:14:47.301Z,9.98
2019-03-12T08:17:26.053Z,24.05
2019-03-12T08:20:01.518Z,13.30
2019-03-12T08:22:34.434Z,17.12
2019-03-12T08:25:13.026Z,14.03
2019-03-12T08:27:45.968Z,11.73
2019-03-12T08:30:21.872Z,11.35
2019-03-12T08:33:10.936Z,12.78
2019-03-12T08:35:56.153Z,15.03
2019-03-12T08:38:30.113Z,12.80
2019-03-12T08:41:02.977Z,18.05
2019-03-12T08:43:40.377Z,18.85
2019-03-12T08:46:25.574Z,21.33
2019-03-12T08:48:59.983Z,13.72
2019-03-12T08:51:38.987Z,13.95
2019-03-12T08:54:14.665Z,13.25
2019-03-12T08:56:50.535Z,12.03
2019-03-12T08:59:33.376Z,10.20
2019-03-12T09:02:15.385Z,11.00
2019-03-12T09:04:56.928Z,12.88
2019-03-12T09:07:32.592Z,9.23
2019-03-12T09:10:15.294Z,8.43
2019-03-12T09:13:04.210Z,9.83
2019-03-12T09:15:46.411Z,7.78
2019-03-12T09:18:35.665Z,7.00
2019-03-12T09:21:08.500Z,8.30
2019-03-12T09:23:44.276Z,11.22
2019-03-12T09:26:32.378Z,7.37
2019-03-12T09:29:08.247Z,10.75
2019-03-12T09:31:50.449Z,7.47
2019-03-12T09:34:23.281Z,8.80
2019-03-12T09:36:56.289Z,10.32
2019-03-12T09:39:32.293Z,10.18
2019-03-12T09:42:05.447Z,10.55
2019-03-12T09:44:38.412Z,9.65
2019-03-12T09:47:17.034Z,7.42
2019-03-12T09:49:55.912Z,9.65
2019-03-12T09:52:41.358Z,8.08
2019-03-12T09:55:19.947Z,52.98
2019-03-12T09:57:52.703Z,7.80
2019-03-12T10:00:34.622Z,5.33
2019-03-12T10:03:10.247Z,4.78
2019-03-12T10:05:51.737Z,5.42
2019-03-12T10:08:30.390Z,5.03
2019-03-12T10:11:09.544Z,8.10
2019-03-12T10:13:43.242Z,9.95
2019-03-12T10:16:32.589Z,21.27
2019-03-12T10:19:05.597Z,8.08
2019-03-12T10:21:38.311Z,4.08
2019-03-12T10:24:17.931Z,3.98
2019-03-12T10:26:53.509Z,6.10
2019-03-12T10:29:29.206Z,5.55
2019-03-12T10:32:01.935Z,4.75
2019-03-12T10:34:34.774Z,6.92
2019-03-12T10:37:12.511Z,8.78
2019-03-12T10:40:06.677Z,8.93
2019-03-12T10:42:55.122Z,7.12
2019-03-12T10:45:28.186Z,8.20
2019-03-12T10:48:04.076Z,9.35
2019-03-12T10:50:35.500Z,5.65
2019-03-12T10:53:06.635Z,34.73
2019-03-12T10:55:37.834Z,7.45
2019-03-12T10:58:09.107Z,6.53
2019-03-12T11:00:40.884Z,8.70
2019-03-12T11:03:12.087Z,5.37
2019-03-12T11:05:46.244Z,3.00
2019-03-12T11:08:15.831Z,7.55
2019-03-12T11:10:46.946Z,2.70
2019-03-12T11:13:18.112Z,4.20
2019-03-12T11:15:49.273Z,5.40
2019-03-12T11:18:20.583Z,10.13
2019-03-12T11:20:51.810Z,5.53
2019-03-12T11:23:22.973Z,6.05
2019-03-12T11:25:54.253Z,6.20
2019-03-12T11:28:28.394Z,7.55
2019-03-12T11:30:59.572Z,4.92
2019-03-12T11:33:30.786Z,4.62
2019-03-12T11:36:01.874Z,7.90
2019-03-12T11:38:33.750Z,6.30
2019-03-12T11:41:05.089Z,8.38
2019-03-12T11:43:36.123Z,5.17
2019-03-12T11:46:07.291Z,5.87
2019-03-12T11:48:38.443Z,6.17
2019-03-12T11:51:09.773Z,4.20
2019-03-12T11:53:41.605Z,3.12
2019-03-12T11:56:12.910Z,6.20
2019-03-12T12:02:28.051Z,6.97
2019-03-12T12:04:59.291Z,6.40
2019-03-12T12:07:32.624Z,5.60
2019-03-12T12:10:07.585Z,5.37
2019-03-12T12:12:40.086Z,4.75
2019-03-12T12:15:15.539Z,5.08
2019-03-12T12:17:49.229Z,4.53
2019-03-12T12:20:28.812Z,6.95
2019-03-12T12:22:52.371Z,7.75
2019-03-12T12:25:23.808Z,22.20
2019-03-12T12:27:55.172Z,4.40
2019-03-12T12:30:26.305Z,3.65
2019-03-12T12:32:59.043Z,6.72
2019-03-12T12:35:30.241Z,7.90
2019-03-12T12:38:01.943Z,6.55
2019-03-12T12:40:33.271Z,7.92
2019-03-12T12:43:04.493Z,7.25
2019-03-12T12:45:38.214Z,9.05
2019-03-12T12:48:09.291Z,8.18
2019-03-12T12:50:40.414Z,4.45
2019-03-12T12:53:11.650Z,6.45
2019-03-12T12:55:43.253Z,3.75
2019-03-12T12:58:14.556Z,8.08
2019-03-12T13:00:45.838Z,8.95
2019-03-12T13:03:16.854Z,4.90
2019-03-12T13:05:47.824Z,7.10
2019-03-12T13:08:19.368Z,5.67
2019-03-12T13:10:50.617Z,7.62
2019-03-12T13:13:21.741Z,6.67
2019-03-12T13:15:53.676Z,6.83
2019-03-12T13:18:24.924Z,4.35
2019-03-12T13:20:56.031Z,6.22
2019-03-12T13:23:27.187Z,6.20
2019-03-12T13:25:59.648Z,8.30
2019-03-12T13:28:30.819Z,10.53
2019-03-12T13:31:02.499Z,4.12
2019-03-12T13:33:35.221Z,10.40
2019-03-12T13:36:08.312Z,8.03
2019-03-12T13:38:45.436Z,7.92
2019-03-12T13:41:12.452Z,8.95
2019-03-12T13:43:44.636Z,5.65
2019-03-12T13:46:16.120Z,8.43
2019-03-12T13:48:47.274Z,8.68
2019-03-12T13:51:18.511Z,7.25
2019-03-12T13:53:49.917Z,6.65
2019-03-12T13:56:21.042Z,11.68
2019-03-12T13:58:52.577Z,8.25
2019-03-12T14:01:23.655Z,9.15
2019-03-12T14:03:54.959Z,8.28
2019-03-12T14:06:26.099Z,8.68
2019-03-12T14:08:57.326Z,7.20
2019-03-12T14:11:28.505Z,7.08
2019-03-12T14:13:59.684Z,10.53
2019-03-12T14:16:32.502Z,10.75
2019-03-12T14:19:03.987Z,11.50
2019-03-12T14:21:40.437Z,7.72
2019-03-12T14:24:11.543Z,8.48
2019-03-12T14:26:43.052Z,11.03
2019-03-12T14:29:14.477Z,6.70
2019-03-12T14:31:46.051Z,7.08
2019-03-12T14:34:17.599Z,7.12
2019-03-12T14:36:48.648Z,4.65
2019-03-12T14:39:20.235Z,6.78
2019-03-12T14:41:51.240Z,7.75
2019-03-12T14:44:22.319Z,9.98
2019-03-12T14:46:54.069Z,7.28
2019-03-12T14:49:25.533Z,8.70
2019-03-12T14:52:02.742Z,7.12
2019-03-12T14:54:34.062Z,9.30
2019-03-12T14:57:05.282Z,8.93
2019-03-12T14:59:36.613Z,8.65
2019-03-12T15:02:07.699Z,7.78
2019-03-12T15:04:38.892Z,14.33
2019-03-12T15:07:10.438Z,9.98
2019-03-12T15:09:41.692Z,10.45
2019-03-12T15:12:14.344Z,7.75
2019-03-12T15:14:45.677Z,12.20
2019-03-12T15:17:16.871Z,7.62
2019-03-12T15:19:48.030Z,8.05
2019-03-12T15:22:19.172Z,8.43
2019-03-12T15:24:50.328Z,9.25
2019-03-12T15:27:21.404Z,9.50
2019-03-12T15:29:52.466Z,6.95
2019-03-12T15:32:24.571Z,8.98
2019-03-12T15:34:55.663Z,10.53
2019-03-12T15:37:29.662Z,11.97
2019-03-12T15:40:01.224Z,12.05
2019-03-12T15:42:33.913Z,16.42
2019-03-12T15:45:07.982Z,13.18
2019-03-12T15:47:39.211Z,10.72
2019-03-12T15:50:14.978Z,20.40
2019-03-12T15:52:46.163Z,19.52
2019-03-12T15:55:17.374Z,20.10
2019-03-12T15:57:48.806Z,22.93
2019-03-12T16:00:20.168Z,17.70
2019-03-12T16:02:51.521Z,19.75
2019-03-12T16:05:22.871Z,16.67
2019-03-12T16:07:55.348Z,18.70
2019-03-12T16:10:26.943Z,22.32
2019-03-12T16:12:58.379Z,19.10
2019-03-12T16:15:30.705Z,23.83
2019-03-12T16:18:02.011Z,29.48
2019-03-12T16:20:33.334Z,30.65
2019-03-12T16:23:04.734Z,27.00
2019-03-12T16:25:35.989Z,39.08
2019-03-12T16:28:07.537Z,31.73
2019-03-12T16:30:39.154Z,25.00
2019-03-12T16:33:10.423Z,24.72
2019-03-12T16:35:41.801Z,25.48
2019-03-12T16:38:13.401Z,24.98
2019-03-12T16:40:44.867Z,18.20
2019-03-12T16:43:16.232Z,20.82
2019-03-12T16:45:47.723Z,30.43
2019-03-12T16:48:19.102Z,22.62
2019-03-12T16:50:50.247Z,20.25
2019-03-12T16:53:21.580Z,24.95
2019-03-12T16:55:52.900Z,45.88
2019-03-12T16:58:24.229Z,60.73
2019-03-12T17:00:55.680Z,59.35
2019-03-12T17:03:27.069Z,65.50
2019-03-12T17:05:58.470Z,64.97
2019-03-12T17:08:29.816Z,60.83
2019-03-12T17:11:03.079Z,65.57
2019-03-12T17:13:34.643Z,55.73
2019-03-12T17:16:06.127Z,65.17
2019-03-12T17:18:37.720Z,54.80
2019-03-12T17:21:09.352Z,57.78
2019-03-12T17:23:40.871Z,64.50
2019-03-12T17:26:12.264Z,63.65
2019-03-12T17:28:44.963Z,60.60
2019-03-12T17:31:16.907Z,56.55
2019-03-12T17:33:48.600Z,51.30
2019-03-12T17:36:21.157Z,42.43
2019-03-12T17:38:52.592Z,29.35
2019-03-12T17:41:25.154Z,26.35
2019-03-12T17:43:57.892Z,30.72
2019-03-12T17:46:29.515Z,28.77
2019-03-12T17:49:00.626Z,28.07
2019-03-12T17:51:31.970Z,27.52
2019-03-12T17:54:03.244Z,28.55
2019-03-12T17:56:34.617Z,28.38
2019-03-12T17:59:06.091Z,32.53
2019-03-12T18:01:37.586Z,33.02
2019-03-12T18:04:08.906Z,61.80
2019-03-12T18:06:40.405Z,26.20
2019-03-12T18:09:11.828Z,31.82
2019-03-12T18:11:44.106Z,35.08
2019-03-12T18:14:15.607Z,34.10
2019-03-12T18:16:47.005Z,47.90
2019-03-12T18:19:18.386Z,54.45
2019-03-12T18:21:49.910Z,54.05
2019-03-12T18:24:21.489Z,62.88
2019-03-12T18:26:53.075Z,56.90
2019-03-12T18:29:25.661Z,61.33
2019-03-12T18:31:57.096Z,59.98
2019-03-12T18:34:28.667Z,55.25
2019-03-12T18:37:00.235Z,53.90
2019-03-12T18:39:32.686Z,52.93
2019-03-12T18:42:04.421Z,57.95
2019-03-12T18:44:36.068Z,62.53
2019-03-12T18:47:08.712Z,79.25
2019-03-12T18:49:50.836Z,76.07
2019-03-12T18:52:22.389Z,70.72
2019-03-12T18:54:53.648Z,65.05
2019-03-12T18:57:26.784Z,61.25
2019-03-12T18:59:58.190Z,65.35
2019-03-12T19:02:29.588Z,65.25
2019-03-12T19:05:01.053Z,69.60
2019-03-12T19:07:32.463Z,66.47
2019-03-12T19:10:03.868Z,61.40
2019-03-12T19:12:35.353Z,65.62
2019-03-12T19:15:12.034Z,70.10
2019-03-12T19:17:43.414Z,74.00
2019-03-12T19:20:18.367Z,59.13
2019-03-12T19:22:50.071Z,63.17
2019-03-12T19:25:27.554Z,67.20
2019-03-12T19:28:00.667Z,73.97
2019-03-12T19:30:33.229Z,67.05
2019-03-12T19:33:16.783Z,66.02
2019-03-12T19:35:49.594Z,62.10
2019-03-12T19:38:21.117Z,58.85
2019-03-12T19:40:57.119Z,59.55
2019-03-12T19:43:28.757Z,48.80
2019-03-12T19:46:00.497Z,60.73
2019-03-12T19:48:32.046Z,53.50
2019-03-12T19:51:03.681Z,51.88
2019-03-12T19:53:35.223Z,54.58
2019-03-12T19:56:09.178Z,49.95
2019-03-12T19:58:40.835Z,52.27
2019-03-12T20:01:12.311Z,57.78
2019-03-12T20:03:43.754Z,58.75
2019-03-12T20:06:15.439Z,81.02
2019-03-12T20:08:47.304Z,64.40
2019-03-12T20:11:33.900Z,66.20
2019-03-12T20:14:29.974Z,66.97
2019-03-12T20:17:39.357Z,73.75
2019-03-12T20:20:37.482Z,60.12
2019-03-12T20:23:26.879Z,55.70
2019-03-12T20:26:10.686Z,57.03
2019-03-12T20:29:02.251Z,81.63
2019-03-12T20:32:01.301Z,56.53
2019-03-12T20:34:41.559Z,53.00
2019-03-12T20:37:49.622Z,52.17
2019-03-12T20:40:41.022Z,60.65
2019-03-12T20:43:27.669Z,53.13
2019-03-12T20:46:38.439Z,59.05
2019-03-12T20:49:37.342Z,62.83
2019-03-12T20:52:42.143Z,57.75
2019-03-12T20:55:31.811Z,58.17
2019-03-12T20:58:11.510Z,54.67
2019-03-12T21:01:23.918Z,64.00
2019-03-12T21:04:18.000Z,62.10
2019-03-12T21:07:15.276Z,54.95
2019-03-12T21:10:09.433Z,63.92
2019-03-12T21:13:02.060Z,60.35
2019-03-12T21:15:45.800Z,65.57
2019-03-12T21:18:42.795Z,59.83
2019-03-12T21:21:24.930Z,77.90
2019-03-12T21:24:35.510Z,58.83
2019-03-12T21:27:25.866Z,59.67
2019-03-12T21:29:56.125Z,65.55
2019-03-12T21:32:27.973Z,60.00
2019-03-12T21:35:02.445Z,59.83
2019-03-12T21:37:35.440Z,52.55
2019-03-12T21:40:09.710Z,55.43
2019-03-12T21:42:41.059Z,57.15
2019-03-12T21:45:12.412Z,51.60
2019-03-12T21:47:46.396Z,45.17
2019-03-12T21:50:19.515Z,48.17
2019-03-12T21:52:51.079Z,43.75
2019-03-12T21:55:22.738Z,42.58
2019-03-12T21:57:54.246Z,39.42
2019-03-12T22:00:25.991Z,41.18
2019-03-12T22:02:57.120Z,38.20
2019-03-12T22:05:28.624Z,35.00
2019-03-12T22:07:59.718Z,34.67
2019-03-12T22:10:31.122Z,36.75
2019-03-12T22:13:02.274Z,35.98
2019-03-12T22:15:34.588Z,40.95
2019-03-12T22:18:05.727Z,36.35
2019-03-12T22:20:37.460Z,66.40
2019-03-12T22:23:11.271Z,37.80
2019-03-12T22:25:42.888Z,37.63
2019-03-12T22:28:14.245Z,35.68
2019-03-12T22:30:49.747Z,37.88
2019-03-12T22:33:21.192Z,37.83
2019-03-12T22:35:52.591Z,33.23
2019-03-12T22:38:26.067Z,32.38
2019-03-12T22:40:57.460Z,32.93
2019-03-12T22:43:28.603Z,31.70
2019-03-12T22:45:59.787Z,36.23
2019-03-12T22:48:31.072Z,29.25
2019-03-12T22:51:02.259Z,29.77
2019-03-12T22:53:33.589Z,34.45
2019-03-12T22:56:04.978Z,29.42
2019-03-12T22:58:36.197Z,28.45
2019-03-12T23:01:25.018Z,30.48
2019-03-12T23:04:14.183Z,24.90
2019-03-12T23:07:03.143Z,25.65
2019-03-12T23:09:45.580Z,26.60
2019-03-12T23:12:22.284Z,22.55
2019-03-12T23:14:54.361Z,23.35
2019-03-12T23:17:28.020Z,22.27
2019-03-12T23:19:59.356Z,20.37
2019-03-12T23:22:31.343Z,26.55
2019-03-12T23:25:02.815Z,27.60
2019-03-12T23:27:35.850Z,22.40
2019-03-12T23:30:23.266Z,27.50
2019-03-12T23:32:54.595Z,20.57
2019-03-12T23:35:25.696Z,21.12
2019-03-12T23:37:57.010Z,23.65
2019-03-12T23:40:28.498Z,22.25
2019-03-12T23:43:00.405Z,16.07
2019-03-12T23:45:31.465Z,21.75
2019-03-12T23:48:02.648Z,17.27
2019-03-12T23:50:33.884Z,16.12
2019-03-12T23:53:05.096Z,17.62
2019-03-12T23:55:36.269Z,15.35
2019-03-12T23:58:07.626Z,17.48
